sensor_id;sensor_type;location;lat;lon;timestamp;pressure;altitude;pressure_sealevel;temperature;humidity
19086;BME280;9675;51.538;6.728;2022-09-29T00:02:12;99671.63;;;9.92;100.00
19086;BME280;9675;51.538;6.728;2022-09-29T00:04:39;99662.09;;;9.90;100.00
19086;BME280;9675;51.538;6.728;2022-09-29T00:07:07;99662.06;;;9.88;100.00
19086;BME280;9675;51.538;6.728;2022-09-29T00:09:35;99663.63;;;9.85;100.00
19086;BME280;9675;51.538;6.728;2022-09-29T00:12:02;99662.78;;;9.84;100.00
19086;BME280;9675;51.538;6.728;2022-09-29T00:14:29;99662.72;;;9.82;100.00
19086;BME280;9675;51.538;6.728;2022-09-29T00:16:56;99667.00;;;9.82;100.00
19086;BME280;9675;51.538;6.728;2022-09-29T00:19:23;99666.13;;;9.81;100.00
19086;BME280;9675;51.538;6.728;2022-09-29T00:21:50;99666.94;;;9.80;100.00
19086;BME280;9675;51.538;6.728;2022-09-29T00:24:18;99666.91;;;9.79;100.00
19086;BME280;9675;51.538;6.728;2022-09-29T00:26:46;99671.97;;;9.77;100.00
19086;BME280;9675;51.538;6.728;2022-09-29T00:29:13;99662.44;;;9.75;100.00
19086;BME280;9675;51.538;6.728;2022-09-29T00:31:40;99661.56;;;9.74;100.00
19086;BME280;9675;51.538;6.728;2022-09-29T00:34:07;99661.50;;;9.71;100.00
19086;BME280;9675;51.538;6.728;2022-09-29T00:36:34;99657.06;;;9.67;100.00
19086;BME280;9675;51.538;6.728;2022-09-29T00:39:03;99657.88;;;9.66;100.00
19086;BME280;9675;51.538;6.728;2022-09-29T00:41:34;99654.38;;;9.64;100.00
19086;BME280;9675;51.538;6.728;2022-09-29T00:44:04;99662.09;;;9.64;100.00
19086;BME280;9675;51.538;6.728;2022-09-29T00:46:39;99658.56;;;9.61;100.00
19086;BME280;9675;51.538;6.728;2022-09-29T00:49:16;99665.38;;;9.60;100.00
19086;BME280;9675;51.538;6.728;2022-09-29T00:51:51;99661.06;;;9.59;100.00
19086;BME280;9675;51.538;6.728;2022-09-29T00:54:21;99666.19;;;9.59;100.00
19086;BME280;9675;51.538;6.728;2022-09-29T00:56:55;99673.81;;;9.56;100.00
19086;BME280;9675;51.538;6.728;2022-09-29T00:59:29;99664.34;;;9.55;100.00
19086;BME280;9675;51.538;6.728;2022-09-29T01:01:59;99666.00;;;9.53;100.00
19086;BME280;9675;51.538;6.728;2022-09-29T01:04:26;99669.41;;;9.52;100.00
19086;BME280;9675;51.538;6.728;2022-09-29T01:06:56;99670.09;;;9.48;100.00
19086;BME280;9675;51.538;6.728;2022-09-29T01:09:29;99670.09;;;9.48;100.00
19086;BME280;9675;51.538;6.728;2022-09-29T01:12:00;99665.81;;;9.47;100.00
19086;BME280;9675;51.538;6.728;2022-09-29T01:14:30;99664.03;;;9.46;100.00
19086;BME280;9675;51.538;6.728;2022-09-29T01:16:58;99665.69;;;9.44;100.00
19086;BME280;9675;51.538;6.728;2022-09-29T01:19:42;99664.75;;;9.42;100.00
19086;BME280;9675;51.538;6.728;2022-09-29T01:22:34;99666.47;;;9.42;100.00
19086;BME280;9675;51.538;6.728;2022-09-29T01:25:35;99667.22;;;9.39;100.00
19086;BME280;9675;51.538;6.728;2022-09-29T01:28:59;99663.72;;;9.37;100.00
19086;BME280;9675;51.538;6.728;2022-09-29T01:31:38;99663.72;;;9.37;100.00
19086;BME280;9675;51.538;6.728;2022-09-29T01:34:22;99673.88;;;9.34;100.00
19086;BME280;9675;51.538;6.728;2022-09-29T01:37:02;99667.13;;;9.36;100.00
19086;BME280;9675;51.538;6.728;2022-09-29T01:39:37;99668.75;;;9.34;100.00
19086;BME280;9675;51.538;6.728;2022-09-29T01:42:15;99670.41;;;9.32;100.00
19086;BME280;9675;51.538;6.728;2022-09-29T01:44:47;99668.66;;;9.31;100.00
19086;BME280;9675;51.538;6.728;2022-09-29T01:47:22;99677.16;;;9.30;100.00
19086;BME280;9675;51.538;6.728;2022-09-29T01:49:58;99676.28;;;9.29;100.00
19086;BME280;9675;51.538;6.728;2022-09-29T01:52:33;99678.78;;;9.28;100.00
19086;BME280;9675;51.538;6.728;2022-09-29T01:55:07;99677.06;;;9.27;100.00
19086;BME280;9675;51.538;6.728;2022-09-29T01:57:44;99671.81;;;9.24;100.00
19086;BME280;9675;51.538;6.728;2022-09-29T02:00:15;99680.31;;;9.23;100.00
19086;BME280;9675;51.538;6.728;2022-09-29T02:02:48;99681.03;;;9.19;100.00
19086;BME280;9675;51.538;6.728;2022-09-29T02:05:21;99678.38;;;9.16;100.00
19086;BME280;9675;51.538;6.728;2022-09-29T02:07:53;99669.84;;;9.17;100.00
19086;BME280;9675;51.538;6.728;2022-09-29T02:10:29;99671.59;;;9.18;100.00
19086;BME280;9675;51.538;6.728;2022-09-29T02:13:02;99670.59;;;9.14;100.00
19086;BME280;9675;51.538;6.728;2022-09-29T02:15:34;99675.75;;;9.14;100.00
19086;BME280;9675;51.538;6.728;2022-09-29T02:18:13;99675.75;;;9.14;100.00
19086;BME280;9675;51.538;6.728;2022-09-29T02:20:42;99674.81;;;9.12;100.00
19086;BME280;9675;51.538;6.728;2022-09-29T02:23:10;99679.09;;;9.12;100.00
19086;BME280;9675;51.538;6.728;2022-09-29T02:25:39;99678.16;;;9.10;100.00
19086;BME280;9675;51.538;6.728;2022-09-29T02:28:07;99680.63;;;9.07;100.00
19086;BME280;9675;51.538;6.728;2022-09-29T02:30:35;99679.69;;;9.05;100.00
19086;BME280;9675;51.538;6.728;2022-09-29T02:33:02;99685.56;;;9.02;100.00
19086;BME280;9675;51.538;6.728;2022-09-29T02:35:42;99680.41;;;9.02;100.00
19086;BME280;9675;51.538;6.728;2022-09-29T02:38:19;99677.81;;;9.01;100.00
19086;BME280;9675;51.538;6.728;2022-09-29T02:41:01;99676.94;;;9.00;100.00
19086;BME280;9675;51.538;6.728;2022-09-29T02:44:01;99673.50;;;9.00;100.00
19086;BME280;9675;51.538;6.728;2022-09-29T02:46:48;99680.31;;;8.99;100.00
19086;BME280;9675;51.538;6.728;2022-09-29T02:49:43;99674.22;;;8.95;100.00
19086;BME280;9675;51.538;6.728;2022-09-29T02:52:24;99670.69;;;8.93;100.00
19086;BME280;9675;51.538;6.728;2022-09-29T02:55:04;99677.47;;;8.91;100.00
19086;BME280;9675;51.538;6.728;2022-09-29T02:57:47;99679.13;;;8.89;100.00
19086;BME280;9675;51.538;6.728;2022-09-29T03:00:18;99677.34;;;8.88;100.00
19086;BME280;9675;51.538;6.728;2022-09-29T03:02:45;99676.38;;;8.85;100.00
19086;BME280;9675;51.538;6.728;2022-09-29T03:05:15;99678.13;;;8.86;100.00
19086;BME280;9675;51.538;6.728;2022-09-29T03:07:44;99678.94;;;8.85;100.00
19086;BME280;9675;51.538;6.728;2022-09-29T03:10:13;99678.00;;;8.83;100.00
19086;BME280;9675;51.538;6.728;2022-09-29T03:12:41;99671.13;;;8.82;100.00
19086;BME280;9675;51.538;6.728;2022-09-29T03:15:09;99673.66;;;8.80;100.00
19086;BME280;9675;51.538;6.728;2022-09-29T03:17:38;99673.66;;;8.80;100.00
19086;BME280;9675;51.538;6.728;2022-09-29T03:20:07;99669.19;;;8.76;100.00
19086;BME280;9675;51.538;6.728;2022-09-29T03:22:35;99675.25;;;8.78;100.00
19086;BME280;9675;51.538;6.728;2022-09-29T03:25:05;99675.16;;;8.75;100.00
19086;BME280;9675;51.538;6.728;2022-09-29T03:27:32;99684.56;;;8.75;100.00
19086;BME280;9675;51.538;6.728;2022-09-29T03:30:01;99675.91;;;8.73;100.00
19086;BME280;9675;51.538;6.728;2022-09-29T03:32:28;99687.84;;;8.72;100.00
19086;BME280;9675;51.538;6.728;2022-09-29T03:34:55;99682.66;;;8.71;100.00
19086;BME280;9675;51.538;6.728;2022-09-29T03:37:22;99676.63;;;8.69;100.00
19086;BME280;9675;51.538;6.728;2022-09-29T03:39:49;99680.00;;;8.68;100.00
19086;BME280;9675;51.538;6.728;2022-09-29T03:42:18;99679.91;;;8.66;100.00
19086;BME280;9675;51.538;6.728;2022-09-29T03:44:48;99679.03;;;8.66;100.00
19086;BME280;9675;51.538;6.728;2022-09-29T03:47:15;99682.38;;;8.63;100.00
19086;BME280;9675;51.538;6.728;2022-09-29T03:49:43;99677.19;;;8.62;100.00
19086;BME280;9675;51.538;6.728;2022-09-29T03:52:10;99681.44;;;8.61;100.00
19086;BME280;9675;51.538;6.728;2022-09-29T03:54:37;99686.53;;;8.60;100.00
19086;BME280;9675;51.538;6.728;2022-09-29T03:57:04;99683.09;;;8.59;100.00
19086;BME280;9675;51.538;6.728;2022-09-29T03:59:33;99683.84;;;8.57;100.00
19086;BME280;9675;51.538;6.728;2022-09-29T04:02:00;99689.75;;;8.54;100.00
19086;BME280;9675;51.538;6.728;2022-09-29T04:04:28;99685.41;;;8.53;100.00
19086;BME280;9675;51.538;6.728;2022-09-29T04:06:55;99685.41;;;8.53;100.00
19086;BME280;9675;51.538;6.728;2022-09-29T04:09:22;99686.22;;;8.52;100.00
19086;BME280;9675;51.538;6.728;2022-09-29T04:11:49;99687.09;;;8.52;100.00
19086;BME280;9675;51.538;6.728;2022-09-29T04:14:16;99686.28;;;8.53;100.00
19086;BME280;9675;51.538;6.728;2022-09-29T04:16:44;99689.75;;;8.54;100.00
19086;BME280;9675;51.538;6.728;2022-09-29T04:19:12;99689.84;;;8.57;100.00
19086;BME280;9675;51.538;6.728;2022-09-29T04:21:39;99702.75;;;8.59;100.00
19086;BME280;9675;51.538;6.728;2022-09-29T04:24:06;99703.63;;;8.59;100.00
19086;BME280;9675;51.538;6.728;2022-09-29T04:26:33;99692.41;;;8.57;100.00
19086;BME280;9675;51.538;6.728;2022-09-29T04:29:00;99702.59;;;8.56;100.00
19086;BME280;9675;51.538;6.728;2022-09-29T04:31:27;99700.09;;;8.57;100.00
19086;BME280;9675;51.538;6.728;2022-09-29T04:33:56;99700.88;;;8.55;100.00
19086;BME280;9675;51.538;6.728;2022-09-29T04:36:23;99708.50;;;8.53;100.00
19086;BME280;9675;51.538;6.728;2022-09-29T04:38:50;99705.88;;;8.51;100.00
19086;BME280;9675;51.538;6.728;2022-09-29T04:41:18;99708.50;;;8.53;100.00
19086;BME280;9675;51.538;6.728;2022-09-29T04:43:45;99708.44;;;8.51;100.00
19086;BME280;9675;51.538;6.728;2022-09-29T04:46:13;99717.81;;;8.51;100.00
19086;BME280;9675;51.538;6.728;2022-09-29T04:48:40;99712.66;;;8.49;100.00
19086;BME280;9675;51.538;6.728;2022-09-29T04:51:09;99711.78;;;8.49;100.00
19086;BME280;9675;51.538;6.728;2022-09-29T04:53:37;99714.34;;;8.49;100.00
19086;BME280;9675;51.538;6.728;2022-09-29T04:56:05;99717.72;;;8.48;100.00
19086;BME280;9675;51.538;6.728;2022-09-29T04:58:33;99717.63;;;8.46;100.00
19086;BME280;9675;51.538;6.728;2022-09-29T05:01:06;99715.00;;;8.45;100.00
19086;BME280;9675;51.538;6.728;2022-09-29T05:03:33;99717.53;;;8.43;100.00
19086;BME280;9675;51.538;6.728;2022-09-29T05:06:00;99725.16;;;8.42;100.00
19086;BME280;9675;51.538;6.728;2022-09-29T05:08:29;99726.78;;;8.40;100.00
19086;BME280;9675;51.538;6.728;2022-09-29T05:10:56;99730.19;;;8.39;100.00
19086;BME280;9675;51.538;6.728;2022-09-29T05:13:23;99729.31;;;8.38;100.00
19086;BME280;9675;51.538;6.728;2022-09-29T05:15:54;99733.56;;;8.38;100.00
19086;BME280;9675;51.538;6.728;2022-09-29T05:18:22;99737.81;;;8.37;100.00
19086;BME280;9675;51.538;6.728;2022-09-29T05:20:49;99737.72;;;8.36;100.00
19086;BME280;9675;51.538;6.728;2022-09-29T05:23:17;99742.88;;;8.36;100.00
19086;BME280;9675;51.538;6.728;2022-09-29T05:25:45;99742.78;;;8.34;100.00
19086;BME280;9675;51.538;6.728;2022-09-29T05:28:13;99744.50;;;8.34;100.00
19086;BME280;9675;51.538;6.728;2022-09-29T05:30:41;99748.69;;;8.32;100.00
19086;BME280;9675;51.538;6.728;2022-09-29T05:33:08;99748.69;;;8.32;100.00
19086;BME280;9675;51.538;6.728;2022-09-29T05:35:35;99745.16;;;8.30;100.00
19086;BME280;9675;51.538;6.728;2022-09-29T05:38:03;99746.81;;;8.29;100.00
19086;BME280;9675;51.538;6.728;2022-09-29T05:40:30;99759.59;;;8.28;100.00
19086;BME280;9675;51.538;6.728;2022-09-29T05:42:59;99757.84;;;8.27;100.00
19086;BME280;9675;51.538;6.728;2022-09-29T05:45:26;99764.66;;;8.26;100.00
19086;BME280;9675;51.538;6.728;2022-09-29T05:47:54;99755.97;;;8.23;100.00
19086;BME280;9675;51.538;6.728;2022-09-29T05:50:21;99753.53;;;8.26;100.00
19086;BME280;9675;51.538;6.728;2022-09-29T05:52:49;99760.41;;;8.27;100.00
19086;BME280;9675;51.538;6.728;2022-09-29T05:55:17;99755.22;;;8.25;100.00
19086;BME280;9675;51.538;6.728;2022-09-29T05:57:47;99758.66;;;8.26;100.00
19086;BME280;9675;51.538;6.728;2022-09-29T06:00:16;99766.34;;;8.26;100.00
19086;BME280;9675;51.538;6.728;2022-09-29T06:02:43;99765.44;;;8.24;100.00
19086;BME280;9675;51.538;6.728;2022-09-29T06:05:11;99768.00;;;8.24;100.00
19086;BME280;9675;51.538;6.728;2022-09-29T06:07:39;99773.94;;;8.23;100.00
19086;BME280;9675;51.538;6.728;2022-09-29T06:10:06;99768.81;;;8.23;100.00
19086;BME280;9675;51.538;6.728;2022-09-29T06:12:35;99763.53;;;8.20;100.00
19086;BME280;9675;51.538;6.728;2022-09-29T06:15:03;99776.50;;;8.23;100.00
19086;BME280;9675;51.538;6.728;2022-09-29T06:17:32;99776.41;;;8.21;100.00
19086;BME280;9675;51.538;6.728;2022-09-29T06:20:00;99775.53;;;8.21;100.00
19086;BME280;9675;51.538;6.728;2022-09-29T06:22:27;99773.78;;;8.20;100.00
19086;BME280;9675;51.538;6.728;2022-09-29T06:24:55;99776.31;;;8.18;100.00
19086;BME280;9675;51.538;6.728;2022-09-29T06:27:22;99770.31;;;8.18;100.00
19086;BME280;9675;51.538;6.728;2022-09-29T06:29:49;99775.44;;;8.18;100.00
19086;BME280;9675;51.538;6.728;2022-09-29T06:32:16;99782.28;;;8.19;100.00
19086;BME280;9675;51.538;6.728;2022-09-29T06:34:45;99779.59;;;8.16;100.00
19086;BME280;9675;51.538;6.728;2022-09-29T06:37:29;99788.72;;;8.09;100.00
19086;BME280;9675;51.538;6.728;2022-09-29T06:40:06;99788.69;;;8.07;100.00
19086;BME280;9675;51.538;6.728;2022-09-29T06:42:34;99785.22;;;8.07;100.00
19086;BME280;9675;51.538;6.728;2022-09-29T06:45:01;99785.94;;;8.03;100.00
19086;BME280;9675;51.538;6.728;2022-09-29T06:47:29;99795.31;;;8.02;100.00
19086;BME280;9675;51.538;6.728;2022-09-29T06:49:57;99792.59;;;7.99;100.00
19086;BME280;9675;51.538;6.728;2022-09-29T06:52:27;99796.03;;;8.00;100.00
19086;BME280;9675;51.538;6.728;2022-09-29T06:54:54;99795.16;;;7.99;100.00
19086;BME280;9675;51.538;6.728;2022-09-29T06:57:21;99807.03;;;7.97;100.00
19086;BME280;9675;51.538;6.728;2022-09-29T06:59:48;99807.03;;;7.97;100.00
19086;BME280;9675;51.538;6.728;2022-09-29T07:02:15;99807.03;;;7.97;100.00
19086;BME280;9675;51.538;6.728;2022-09-29T07:04:43;99806.09;;;7.95;100.00
19086;BME280;9675;51.538;6.728;2022-09-29T07:07:14;99812.16;;;7.97;100.00
19086;BME280;9675;51.538;6.728;2022-09-29T07:09:41;99815.66;;;7.99;100.00
19086;BME280;9675;51.538;6.728;2022-09-29T07:12:08;99810.78;;;8.05;100.00
19086;BME280;9675;51.538;6.728;2022-09-29T07:14:36;99810.91;;;8.08;100.00
19086;BME280;9675;51.538;6.728;2022-09-29T07:17:04;99818.81;;;8.13;100.00
19086;BME280;9675;51.538;6.728;2022-09-29T07:19:31;99827.31;;;8.12;100.00
19086;BME280;9675;51.538;6.728;2022-09-29T07:21:58;99824.00;;;8.15;100.00
19086;BME280;9675;51.538;6.728;2022-09-29T07:24:26;99821.44;;;8.15;100.00
19086;BME280;9675;51.538;6.728;2022-09-29T07:26:53;99831.69;;;8.15;100.00
19086;BME280;9675;51.538;6.728;2022-09-29T07:29:21;99826.53;;;8.13;100.00
19086;BME280;9675;51.538;6.728;2022-09-29T07:31:48;99831.69;;;8.15;100.00
19086;BME280;9675;51.538;6.728;2022-09-29T07:34:17;99825.84;;;8.17;100.00
19086;BME280;9675;51.538;6.728;2022-09-29T07:36:44;99834.53;;;8.21;100.00
19086;BME280;9675;51.538;6.728;2022-09-29T07:39:11;99830.19;;;8.20;100.00
19086;BME280;9675;51.538;6.728;2022-09-29T07:41:40;99839.53;;;8.18;100.00
19086;BME280;9675;51.538;6.728;2022-09-29T07:44:07;99841.34;;;8.20;100.00
19086;BME280;9675;51.538;6.728;2022-09-29T07:46:34;99843.09;;;8.21;100.00
19086;BME280;9675;51.538;6.728;2022-09-29T07:49:02;99849.09;;;8.22;100.00
19086;BME280;9675;51.538;6.728;2022-09-29T07:51:29;99846.53;;;8.22;100.00
19086;BME280;9675;51.538;6.728;2022-09-29T07:54:01;99856.88;;;8.23;100.00
19086;BME280;9675;51.538;6.728;2022-09-29T07:56:28;99847.50;;;8.24;100.00
19086;BME280;9675;51.538;6.728;2022-09-29T07:58:57;99851.94;;;8.28;100.00
19086;BME280;9675;51.538;6.728;2022-09-29T08:01:24;99849.59;;;8.32;100.00
19086;BME280;9675;51.538;6.728;2022-09-29T08:03:54;99860.03;;;8.37;100.00
19086;BME280;9675;51.538;6.728;2022-09-29T08:06:23;99863.56;;;8.39;100.00
19086;BME280;9675;51.538;6.728;2022-09-29T08:08:51;99859.50;;;8.44;100.00
19086;BME280;9675;51.538;6.728;2022-09-29T08:11:20;99863.94;;;8.48;100.00
19086;BME280;9675;51.538;6.728;2022-09-29T08:13:49;99872.56;;;8.50;100.00
19086;BME280;9675;51.538;6.728;2022-09-29T08:16:19;99868.63;;;8.58;100.00
19086;BME280;9675;51.538;6.728;2022-09-29T08:18:46;99873.22;;;8.65;100.00
19086;BME280;9675;51.538;6.728;2022-09-29T08:21:13;99874.31;;;8.72;100.00
19086;BME280;9675;51.538;6.728;2022-09-29T08:23:42;99881.53;;;8.80;100.00
19086;BME280;9675;51.538;6.728;2022-09-29T08:26:11;99883.50;;;8.86;100.00
19086;BME280;9675;51.538;6.728;2022-09-29T08:28:40;99879.47;;;8.92;100.00
19086;BME280;9675;51.538;6.728;2022-09-29T08:31:12;99883.22;;;9.01;100.00
19086;BME280;9675;51.538;6.728;2022-09-29T08:33:41;99880.06;;;9.08;100.00
19086;BME280;9675;51.538;6.728;2022-09-29T08:36:09;99889.72;;;9.13;100.00
19086;BME280;9675;51.538;6.728;2022-09-29T08:38:41;99894.34;;;9.22;100.00
19086;BME280;9675;51.538;6.728;2022-09-29T08:41:31;99892.94;;;9.30;100.00
19086;BME280;9675;51.538;6.728;2022-09-29T08:44:04;99892.38;;;9.37;100.00
19086;BME280;9675;51.538;6.728;2022-09-29T08:46:39;99894.41;;;9.46;100.00
19086;BME280;9675;51.538;6.728;2022-09-29T08:49:17;99889.63;;;9.55;100.00
19086;BME280;9675;51.538;6.728;2022-09-29T08:51:51;99889.97;;;9.64;100.00
19086;BME280;9675;51.538;6.728;2022-09-29T08:54:29;99892.84;;;9.71;100.00
19086;BME280;9675;51.538;6.728;2022-09-29T08:56:58;99896.56;;;9.79;100.00
19086;BME280;9675;51.538;6.728;2022-09-29T08:59:28;99890.81;;;9.87;100.00
19086;BME280;9675;51.538;6.728;2022-09-29T09:02:26;99891.28;;;9.99;100.00
19086;BME280;9675;51.538;6.728;2022-09-29T09:05:11;99899.31;;;10.08;100.00
19086;BME280;9675;51.538;6.728;2022-09-29T09:07:52;99894.47;;;10.15;100.00
19086;BME280;9675;51.538;6.728;2022-09-29T09:10:37;99899.16;;;10.26;100.00
19086;BME280;9675;51.538;6.728;2022-09-29T09:13:24;99903.75;;;10.34;100.00
19086;BME280;9675;51.538;6.728;2022-09-29T09:16:15;99907.44;;;10.42;100.00
19086;BME280;9675;51.538;6.728;2022-09-29T09:19:13;99900.91;;;10.52;100.00
19086;BME280;9675;51.538;6.728;2022-09-29T09:21:55;99909.88;;;10.63;100.00
19086;BME280;9675;51.538;6.728;2022-09-29T09:24:39;99905.09;;;10.74;100.00
19086;BME280;9675;51.538;6.728;2022-09-29T09:27:15;99910.66;;;10.86;100.00
19086;BME280;9675;51.538;6.728;2022-09-29T09:29:55;99907.56;;;10.96;100.00
19086;BME280;9675;51.538;6.728;2022-09-29T09:32:30;99905.28;;;11.05;100.00
19086;BME280;9675;51.538;6.728;2022-09-29T09:35:08;99910.84;;;11.17;100.00
19086;BME280;9675;51.538;6.728;2022-09-29T09:37:45;99903.50;;;11.29;100.00
19086;BME280;9675;51.538;6.728;2022-09-29T09:40:18;99914.97;;;11.39;100.00
19086;BME280;9675;51.538;6.728;2022-09-29T09:42:56;99912.72;;;11.49;100.00
19086;BME280;9675;51.538;6.728;2022-09-29T09:45:31;99907.03;;;11.61;100.00
19086;BME280;9675;51.538;6.728;2022-09-29T09:48:08;99906.47;;;11.70;100.00
19086;BME280;9675;51.538;6.728;2022-09-29T09:50:40;99907.69;;;11.81;100.00
19086;BME280;9675;51.538;6.728;2022-09-29T09:53:18;99908.00;;;11.91;100.00
19086;BME280;9675;51.538;6.728;2022-09-29T09:55:57;99908.34;;;12.04;100.00
19086;BME280;9675;51.538;6.728;2022-09-29T09:58:58;99909.59;;;12.18;100.00
19086;BME280;9675;51.538;6.728;2022-09-29T10:01:31;99914.22;;;12.29;100.00
19086;BME280;9675;51.538;6.728;2022-09-29T10:04:00;99914.53;;;12.40;100.00
19086;BME280;9675;51.538;6.728;2022-09-29T10:06:28;99911.41;;;12.52;100.00
19086;BME280;9675;51.538;6.728;2022-09-29T10:08:57;99905.72;;;12.65;100.00
19086;BME280;9675;51.538;6.728;2022-09-29T10:11:27;99912.03;;;12.76;100.00
19086;BME280;9675;51.538;6.728;2022-09-29T10:14:02;99906.34;;;12.89;100.00
19086;BME280;9675;51.538;6.728;2022-09-29T10:16:37;99916.97;;;13.01;100.00
19086;BME280;9675;51.538;6.728;2022-09-29T10:19:08;99915.56;;;13.12;100.00
19086;BME280;9675;51.538;6.728;2022-09-29T10:21:37;99916.75;;;13.25;100.00
19086;BME280;9675;51.538;6.728;2022-09-29T10:24:22;99914.47;;;13.39;100.00
19086;BME280;9675;51.538;6.728;2022-09-29T10:26:53;99918.97;;;13.46;100.00
19086;BME280;9675;51.538;6.728;2022-09-29T10:29:30;99916.63;;;13.56;100.00
19086;BME280;9675;51.538;6.728;2022-09-29T10:32:04;99922.97;;;13.71;100.00
19086;BME280;9675;51.538;6.728;2022-09-29T10:34:36;99919.78;;;13.84;100.00
19086;BME280;9675;51.538;6.728;2022-09-29T10:37:18;99926.13;;;13.96;100.00
19086;BME280;9675;51.538;6.728;2022-09-29T10:39:50;99923.78;;;14.09;100.00
19086;BME280;9675;51.538;6.728;2022-09-29T10:42:33;99925.72;;;14.20;100.00
19086;BME280;9675;51.538;6.728;2022-09-29T10:45:11;99919.06;;;14.31;100.00
19086;BME280;9675;51.538;6.728;2022-09-29T10:47:40;99927.16;;;14.45;100.00
19086;BME280;9675;51.538;6.728;2022-09-29T10:50:14;99929.16;;;14.61;100.00
19086;BME280;9675;51.538;6.728;2022-09-29T10:52:44;99927.72;;;14.75;100.00
19086;BME280;9675;51.538;6.728;2022-09-29T10:55:19;99922.75;;;14.89;100.00
19086;BME280;9675;51.538;6.728;2022-09-29T10:57:48;99924.69;;;15.01;100.00
19086;BME280;9675;51.538;6.728;2022-09-29T11:00:32;99930.94;;;15.13;100.00
19086;BME280;9675;51.538;6.728;2022-09-29T11:03:06;99930.28;;;15.25;100.00
19086;BME280;9675;51.538;6.728;2022-09-29T11:05:36;99940.88;;;15.40;100.00
19086;BME280;9675;51.538;6.728;2022-09-29T11:08:11;99931.59;;;15.51;100.00
19086;BME280;9675;51.538;6.728;2022-09-29T11:10:41;99933.44;;;15.60;100.00
19086;BME280;9675;51.538;6.728;2022-09-29T11:13:37;99935.34;;;15.71;100.00
19086;BME280;9675;51.538;6.728;2022-09-29T11:16:13;99930.34;;;15.85;100.00
19086;BME280;9675;51.538;6.728;2022-09-29T11:18:44;99928.78;;;15.98;100.00
19086;BME280;9675;51.538;6.728;2022-09-29T11:27:37;99945.72;;;16.36;100.00
19086;BME280;9675;51.538;6.728;2022-09-29T11:30:11;99930.22;;;16.45;100.00
19086;BME280;9675;51.538;6.728;2022-09-29T11:33:02;99936.41;;;16.56;100.00
19086;BME280;9675;51.538;6.728;2022-09-29T11:35:48;99934.84;;;16.69;100.00
19086;BME280;9675;51.538;6.728;2022-09-29T11:38:41;99938.41;;;16.79;100.00
19086;BME280;9675;51.538;6.728;2022-09-29T11:41:45;99938.44;;;16.82;98.35
19086;BME280;9675;51.538;6.728;2022-09-29T11:44:59;99939.38;;;16.90;92.26
19086;BME280;9675;51.538;6.728;2022-09-29T11:48:15;99934.25;;;16.96;89.62
19086;BME280;9675;51.538;6.728;2022-09-29T11:50:54;99939.50;;;17.05;87.07
19086;BME280;9675;51.538;6.728;2022-09-29T11:53:40;99950.91;;;17.18;84.48
19086;BME280;9675;51.538;6.728;2022-09-29T11:56:36;99946.72;;;17.33;82.07
19086;BME280;9675;51.538;6.728;2022-09-29T11:59:30;99948.53;;;17.47;84.20
19086;BME280;9675;51.538;6.728;2022-09-29T12:02:44;99945.97;;;17.53;79.03
19086;BME280;9675;51.538;6.728;2022-09-29T12:05:22;99946.06;;;17.62;73.84
19086;BME280;9675;51.538;6.728;2022-09-29T12:08:06;99944.44;;;17.76;75.56
19086;BME280;9675;51.538;6.728;2022-09-29T12:10:50;99944.47;;;17.83;72.04
19086;BME280;9675;51.538;6.728;2022-09-29T12:13:31;99944.53;;;17.94;71.91
19086;BME280;9675;51.538;6.728;2022-09-29T12:16:09;99937.63;;;18.04;69.30
19086;BME280;9675;51.538;6.728;2022-09-29T12:18:46;99943.81;;;18.22;68.40
19086;BME280;9675;51.538;6.728;2022-09-29T12:21:26;99942.13;;;18.37;70.23
19086;BME280;9675;51.538;6.728;2022-09-29T12:23:56;99943.91;;;18.44;66.95
19086;BME280;9675;51.538;6.728;2022-09-29T12:26:25;99937.88;;;18.54;66.77
19086;BME280;9675;51.538;6.728;2022-09-29T12:28:58;99946.56;;;18.60;66.36
19086;BME280;9675;51.538;6.728;2022-09-29T12:31:32;99949.22;;;18.68;65.69
19086;BME280;9675;51.538;6.728;2022-09-29T12:34:07;99942.25;;;18.76;66.33
19086;BME280;9675;51.538;6.728;2022-09-29T12:36:46;99942.28;;;18.82;64.44
19086;BME280;9675;51.538;6.728;2022-09-29T12:39:33;99943.16;;;18.89;63.94
19086;BME280;9675;51.538;6.728;2022-09-29T12:42:27;99942.28;;;18.97;63.52
19086;BME280;9675;51.538;6.728;2022-09-29T12:45:05;99947.53;;;19.06;62.78
19086;BME280;9675;51.538;6.728;2022-09-29T12:48:06;99954.47;;;19.12;62.68
19086;BME280;9675;51.538;6.728;2022-09-29T12:50:47;99949.28;;;19.17;61.49
19086;BME280;9675;51.538;6.728;2022-09-29T12:53:23;99944.03;;;19.23;61.17
19086;BME280;9675;51.538;6.728;2022-09-29T12:56:00;99943.19;;;19.28;60.75
19086;BME280;9675;51.538;6.728;2022-09-29T12:58:38;99938.84;;;19.30;60.59
19086;BME280;9675;51.538;6.728;2022-09-29T13:01:22;99949.28;;;19.32;59.34
19086;BME280;9675;51.538;6.728;2022-09-29T13:04:46;99937.09;;;19.40;59.05
19086;BME280;9675;51.538;6.728;2022-09-29T13:07:59;99951.03;;;19.45;57.84
19086;BME280;9675;51.538;6.728;2022-09-29T13:10:57;99939.72;;;19.52;57.47
19086;BME280;9675;51.538;6.728;2022-09-29T13:14:09;99944.03;;;19.64;57.16
19086;BME280;9675;51.538;6.728;2022-09-29T13:17:08;99948.38;;;19.75;57.04
19086;BME280;9675;51.538;6.728;2022-09-29T13:23:19;99954.47;;;19.86;55.73
19086;BME280;9675;51.538;6.728;2022-09-29T13:26:04;99950.09;;;19.91;55.63
19086;BME280;9675;51.538;6.728;2022-09-29T13:28:47;99954.47;;;19.94;54.10
19086;BME280;9675;51.538;6.728;2022-09-29T13:31:22;99943.97;;;20.02;54.47
19086;BME280;9675;51.538;6.728;2022-09-29T13:33:55;99945.66;;;20.12;54.54
19086;BME280;9675;51.538;6.728;2022-09-29T13:36:27;99956.13;;;20.18;54.17
19086;BME280;9675;51.538;6.728;2022-09-29T13:39:05;99951.75;;;20.20;54.17
19086;BME280;9675;51.538;6.728;2022-09-29T13:41:35;99953.47;;;20.22;53.58
19086;BME280;9675;51.538;6.728;2022-09-29T13:44:20;99952.63;;;20.25;53.42
19086;BME280;9675;51.538;6.728;2022-09-29T13:46:51;99958.69;;;20.31;52.89
19086;BME280;9675;51.538;6.728;2022-09-29T13:49:28;99947.34;;;20.37;53.04
19086;BME280;9675;51.538;6.728;2022-09-29T13:51:58;99954.34;;;20.35;52.52
19086;BME280;9675;51.538;6.728;2022-09-29T13:54:47;99959.56;;;20.35;52.63
19086;BME280;9675;51.538;6.728;2022-09-29T13:57:21;99963.03;;;20.39;51.89